createdAt,value
2023-02-06T00:01:22.515Z,2.30
2023-02-06T00:03:49.151Z,2.34
2023-02-06T00:06:16.164Z,2.40
2023-02-06T00:08:42.883Z,2.40
2023-02-06T00:11:14.082Z,2.36
2023-02-06T00:13:40.864Z,2.32
2023-02-06T00:16:18.186Z,2.36
2023-02-06T00:18:45.113Z,2.40
2023-02-06T00:21:12.364Z,2.40
2023-02-06T00:23:39.001Z,2.40
2023-02-06T00:26:07.508Z,2.32
2023-02-06T00:28:34.425Z,2.30
2023-02-06T00:31:01.118Z,2.30
2023-02-06T00:33:27.864Z,2.30
2023-02-06T00:35:54.397Z,2.30
2023-02-06T00:38:21.090Z,2.30
2023-02-06T00:40:47.703Z,2.30
2023-02-06T00:43:14.359Z,2.40
2023-02-06T00:45:40.990Z,2.50
2023-02-06T00:48:09.268Z,2.54
2023-02-06T00:50:37.263Z,2.60
2023-02-06T00:53:03.895Z,2.60
2023-02-06T00:55:30.922Z,2.60
2023-02-06T00:57:57.523Z,2.60
2023-02-06T01:00:24.209Z,2.60
2023-02-06T01:02:51.365Z,2.60
2023-02-06T01:05:18.250Z,2.50
2023-02-06T01:07:44.801Z,2.44
2023-02-06T01:10:13.228Z,2.40
2023-02-06T01:12:40.278Z,2.40
2023-02-06T01:15:11.088Z,2.40
2023-02-06T01:17:41.640Z,2.40
2023-02-06T01:20:12.590Z,2.40
2023-02-06T01:22:40.586Z,2.30
2023-02-06T01:25:08.036Z,2.30
2023-02-06T01:27:38.466Z,2.30
2023-02-06T01:30:07.273Z,2.20
2023-02-06T01:32:42.578Z,2.20
2023-02-06T01:35:11.687Z,2.20
2023-02-06T01:37:39.651Z,2.20
2023-02-06T01:40:12.383Z,2.20
2023-02-06T01:42:39.437Z,2.20
2023-02-06T01:45:25.919Z,2.20
2023-02-06T01:47:59.403Z,2.20
2023-02-06T01:50:26.463Z,2.24
2023-02-06T01:52:53.161Z,2.30
2023-02-06T01:55:19.803Z,2.36
2023-02-06T01:57:46.459Z,2.40
2023-02-06T02:00:14.229Z,2.42
2023-02-06T02:02:45.279Z,2.50
2023-02-06T02:05:12.770Z,2.50
2023-02-06T02:07:51.559Z,2.50
2023-02-06T02:10:18.161Z,2.50
2023-02-06T02:12:44.734Z,2.40
2023-02-06T02:15:11.586Z,2.30
2023-02-06T02:18:09.253Z,2.28
2023-02-06T02:21:00.129Z,2.24
2023-02-06T02:23:52.284Z,2.20
2023-02-06T02:26:50.548Z,2.20
2023-02-06T02:29:47.122Z,2.10
2023-02-06T02:32:37.086Z,2.20
2023-02-06T02:35:24.372Z,2.20
2023-02-06T02:38:30.415Z,2.10
2023-02-06T02:41:15.727Z,2.00
2023-02-06T02:44:21.853Z,2.00
2023-02-06T02:46:52.347Z,1.92
2023-02-06T02:49:24.553Z,1.90
2023-02-06T02:51:52.134Z,1.90
2023-02-06T02:54:19.846Z,1.90
2023-02-06T02:56:47.130Z,1.80
2023-02-06T02:59:23.910Z,1.80
2023-02-06T03:02:01.481Z,1.80
2023-02-06T03:04:51.801Z,1.80
2023-02-06T03:08:08.939Z,1.70
2023-02-06T03:11:12.187Z,1.70
2023-02-06T03:13:54.053Z,1.70
2023-02-06T03:16:29.800Z,1.70
2023-02-06T03:19:06.176Z,1.70
2023-02-06T03:21:36.049Z,1.70
2023-02-06T03:24:09.243Z,1.60
2023-02-06T03:26:37.261Z,1.58
2023-02-06T03:29:09.625Z,1.50
2023-02-06T03:31:46.332Z,1.50
2023-02-06T03:34:37.291Z,1.50
2023-02-06T03:37:04.086Z,1.42
2023-02-06T03:39:30.880Z,1.40
2023-02-06T03:41:59.954Z,1.40
2023-02-06T03:44:32.518Z,1.40
2023-02-06T03:47:01.823Z,1.30
2023-02-06T03:49:30.929Z,1.30
2023-02-06T03:52:05.949Z,1.30
2023-02-06T03:54:36.414Z,1.24
2023-02-06T03:57:07.153Z,1.20
2023-02-06T03:59:33.985Z,1.20
2023-02-06T04:02:03.678Z,1.16
2023-02-06T04:04:38.269Z,1.10
2023-02-06T04:07:16.028Z,1.10
2023-02-06T04:09:42.663Z,1.00
2023-02-06T04:12:09.502Z,1.00
2023-02-06T04:14:36.833Z,0.90
2023-02-06T04:17:07.376Z,0.90
2023-02-06T04:19:34.689Z,0.90
2023-02-06T04:22:02.152Z,0.90
2023-02-06T04:24:30.865Z,0.80
2023-02-06T04:26:57.868Z,0.80
2023-02-06T04:29:24.533Z,0.80
2023-02-06T04:31:51.208Z,0.80
2023-02-06T04:34:18.280Z,0.80
2023-02-06T04:36:44.847Z,0.80
2023-02-06T04:39:11.531Z,0.80
2023-02-06T04:41:38.119Z,0.72
2023-02-06T04:44:04.962Z,0.70
2023-02-06T04:46:31.622Z,0.70
2023-02-06T04:48:58.216Z,0.70
2023-02-06T04:51:24.765Z,0.70
2023-02-06T04:53:51.294Z,0.70
2023-02-06T04:56:17.903Z,0.70
2023-02-06T04:58:44.484Z,0.76
2023-02-06T05:01:11.288Z,0.80
2023-02-06T05:03:37.941Z,0.80
2023-02-06T05:06:05.460Z,0.80
2023-02-06T05:08:32.077Z,0.80
2023-02-06T05:10:58.609Z,0.80
2023-02-06T05:13:26.238Z,0.80
2023-02-06T05:15:52.938Z,0.76
2023-02-06T05:18:19.791Z,0.80
2023-02-06T05:20:46.457Z,0.80
2023-02-06T05:23:13.102Z,0.78
2023-02-06T05:25:42.131Z,0.72
2023-02-06T05:28:09.121Z,0.72
2023-02-06T05:30:36.525Z,0.80
2023-02-06T05:33:03.206Z,0.80
2023-02-06T05:35:29.860Z,0.80
2023-02-06T05:37:57.969Z,0.80
2023-02-06T05:40:25.094Z,0.80
2023-02-06T05:42:51.817Z,0.80
2023-02-06T05:45:18.702Z,0.80
2023-02-06T05:47:45.374Z,0.80
2023-02-06T05:50:11.980Z,0.80
2023-02-06T05:52:38.532Z,0.80
2023-02-06T05:55:05.661Z,0.80
2023-02-06T05:57:32.257Z,0.80
2023-02-06T05:59:58.881Z,0.76
2023-02-06T06:02:25.502Z,0.70
2023-02-06T06:04:52.224Z,0.70
2023-02-06T06:07:18.789Z,0.70
2023-02-06T06:09:45.329Z,0.70
2023-02-06T06:12:11.953Z,0.66
2023-02-06T06:14:38.566Z,0.60
2023-02-06T06:17:05.134Z,0.60
2023-02-06T06:19:31.792Z,0.60
2023-02-06T06:21:58.539Z,0.60
2023-02-06T06:24:26.985Z,0.60
2023-02-06T06:26:53.629Z,0.60
2023-02-06T06:29:20.283Z,0.50
2023-02-06T06:31:47.029Z,0.50
2023-02-06T06:34:13.775Z,0.50
2023-02-06T06:36:40.413Z,0.50
2023-02-06T06:39:07.058Z,0.50
2023-02-06T06:41:33.681Z,0.40
2023-02-06T06:44:00.480Z,0.40
2023-02-06T06:46:27.109Z,0.30
2023-02-06T06:48:53.808Z,0.30
2023-02-06T06:51:21.056Z,0.30
2023-02-06T06:53:47.647Z,0.30
2023-02-06T06:56:15.318Z,0.30
2023-02-06T06:58:42.363Z,0.20
2023-02-06T07:01:08.989Z,0.20
2023-02-06T07:03:36.750Z,0.20
2023-02-06T07:06:04.829Z,0.20
2023-02-06T07:08:31.584Z,0.20
2023-02-06T07:10:58.462Z,0.20
2023-02-06T07:13:25.155Z,0.20
2023-02-06T07:15:51.811Z,0.10
2023-02-06T07:18:18.410Z,0.10
2023-02-06T07:20:45.059Z,0.10
2023-02-06T07:23:11.697Z,0.10
2023-02-06T07:25:38.573Z,0.10
2023-02-06T07:28:05.562Z,0.10
2023-02-06T07:30:32.387Z,0.10
2023-02-06T07:32:59.014Z,0.10
2023-02-06T07:35:26.221Z,0.20
2023-02-06T07:37:54.236Z,0.20
2023-02-06T07:40:22.823Z,0.28
2023-02-06T07:42:49.645Z,0.30
2023-02-06T07:45:21.574Z,0.30
2023-02-06T07:47:48.172Z,0.32
2023-02-06T07:50:14.966Z,0.40
2023-02-06T07:52:41.472Z,0.32
2023-02-06T07:55:10.164Z,0.40
2023-02-06T07:57:36.916Z,0.40
2023-02-06T08:00:05.273Z,0.40
2023-02-06T08:02:39.371Z,0.40
2023-02-06T08:05:06.358Z,0.48
2023-02-06T08:07:32.939Z,0.50
2023-02-06T08:09:59.476Z,0.50
2023-02-06T08:12:26.736Z,0.52
2023-02-06T08:14:53.299Z,0.60
2023-02-06T08:17:21.315Z,0.60
2023-02-06T08:19:49.294Z,0.70
2023-02-06T08:22:16.089Z,0.80
2023-02-06T08:24:42.630Z,0.84
2023-02-06T08:27:09.315Z,0.90
2023-02-06T08:29:42.708Z,0.90
2023-02-06T08:32:11.276Z,0.90
2023-02-06T08:34:41.603Z,0.90
2023-02-06T08:37:08.333Z,1.04
2023-02-06T08:39:34.946Z,1.10
2023-02-06T08:42:02.038Z,1.20
2023-02-06T08:44:28.690Z,1.20
2023-02-06T08:47:08.917Z,1.34
2023-02-06T08:49:36.559Z,1.48
2023-02-06T08:52:03.171Z,1.40
2023-02-06T08:54:30.020Z,1.30
2023-02-06T09:01:45.581Z,1.26
2023-02-06T09:04:14.221Z,1.20
2023-02-06T09:06:45.153Z,1.10
2023-02-06T09:09:13.288Z,1.00
2023-02-06T09:11:40.482Z,1.00
2023-02-06T09:14:13.335Z,1.10
2023-02-06T09:16:40.025Z,1.20
2023-02-06T09:19:06.991Z,1.30
2023-02-06T09:21:35.471Z,1.30
2023-02-06T09:24:06.748Z,1.40
2023-02-06T09:26:53.478Z,1.40
2023-02-06T09:29:25.025Z,1.42
2023-02-06T09:31:51.683Z,1.60
2023-02-06T09:34:18.343Z,1.76
2023-02-06T09:36:45.882Z,1.80
2023-02-06T09:39:12.587Z,1.94
2023-02-06T09:41:51.148Z,2.30
2023-02-06T09:44:37.083Z,2.60
2023-02-06T09:47:24.882Z,3.06
2023-02-06T09:49:58.491Z,3.64
2023-02-06T09:52:37.278Z,4.36
2023-02-06T09:55:43.691Z,5.20
2023-02-06T09:58:29.951Z,6.04
2023-02-06T10:01:57.624Z,6.70
2023-02-06T10:04:27.403Z,7.24
2023-02-06T10:07:02.482Z,7.70
2023-02-06T10:09:52.101Z,7.30
2023-02-06T10:12:28.820Z,7.10
2023-02-06T10:15:27.634Z,7.00
2023-02-06T10:18:04.436Z,7.92
2023-02-06T10:20:36.927Z,8.50
2023-02-06T10:23:13.114Z,7.72
2023-02-06T10:25:49.726Z,7.30
2023-02-06T10:28:28.968Z,7.00
2023-02-06T10:31:24.029Z,6.50
2023-02-06T10:33:53.720Z,6.52
2023-02-06T10:36:58.937Z,6.78
2023-02-06T10:40:18.812Z,6.90
2023-02-06T10:43:14.142Z,6.34
2023-02-06T10:46:20.341Z,5.50
2023-02-06T10:49:00.296Z,4.90
2023-02-06T10:51:36.653Z,4.94
2023-02-06T10:54:12.254Z,5.20
2023-02-06T10:56:45.729Z,5.40
2023-02-06T10:59:45.994Z,5.14
2023-02-06T11:02:49.008Z,4.70
2023-02-06T11:05:28.124Z,4.50
2023-02-06T11:08:03.345Z,4.42
2023-02-06T11:10:30.916Z,4.50
2023-02-06T11:13:27.598Z,4.38
2023-02-06T11:16:16.460Z,4.10
2023-02-06T11:18:46.347Z,4.00
2023-02-06T11:21:17.141Z,3.90
2023-02-06T11:23:43.772Z,3.90
2023-02-06T11:26:18.386Z,4.00
2023-02-06T11:28:55.088Z,4.10
2023-02-06T11:31:46.336Z,4.10
2023-02-06T11:34:51.577Z,4.08
2023-02-06T11:37:41.541Z,4.00
2023-02-06T11:40:17.064Z,3.88
2023-02-06T11:42:53.250Z,3.80
2023-02-06T11:45:22.911Z,3.80
2023-02-06T11:47:49.932Z,3.70
2023-02-06T11:50:24.113Z,3.80
2023-02-06T11:52:56.173Z,3.80
2023-02-06T11:55:35.325Z,3.70
2023-02-06T11:58:14.456Z,3.60
2023-02-06T12:00:57.077Z,3.60
2023-02-06T12:03:40.019Z,3.66
2023-02-06T12:06:24.773Z,3.90
2023-02-06T12:08:58.785Z,3.90
2023-02-06T12:11:40.323Z,3.74
2023-02-06T12:14:18.550Z,3.60
2023-02-06T12:16:46.559Z,3.46
2023-02-06T12:19:31.770Z,3.50
2023-02-06T12:22:07.027Z,3.50
2023-02-06T12:24:42.631Z,3.42
2023-02-06T12:27:27.983Z,3.40
2023-02-06T12:30:07.941Z,3.38
2023-02-06T12:32:50.925Z,3.22
2023-02-06T12:35:27.449Z,3.12
2023-02-06T12:38:00.237Z,3.10
2023-02-06T12:40:57.238Z,3.00
2023-02-06T12:43:23.942Z,3.00
2023-02-06T12:46:28.886Z,3.00
2023-02-06T12:49:20.532Z,2.90
2023-02-06T12:51:59.658Z,3.00
2023-02-06T12:54:54.666Z,3.10
2023-02-06T12:57:25.566Z,3.20
2023-02-06T13:00:16.973Z,3.20
2023-02-06T13:03:34.908Z,3.22
2023-02-06T13:06:13.531Z,3.10
2023-02-06T13:08:56.086Z,2.90
2023-02-06T13:11:39.264Z,2.70
2023-02-06T13:14:26.988Z,2.50
2023-02-06T13:17:10.340Z,2.40
2023-02-06T13:19:36.857Z,2.36
2023-02-06T13:22:09.232Z,2.48
2023-02-06T13:24:40.681Z,2.50
2023-02-06T13:27:07.219Z,2.42
2023-02-06T13:29:46.416Z,2.50
2023-02-06T13:32:14.892Z,2.30
2023-02-06T13:34:44.415Z,2.28
2023-02-06T13:37:39.893Z,2.20
2023-02-06T13:40:35.278Z,2.20
2023-02-06T13:43:11.120Z,2.20
2023-02-06T13:45:45.985Z,2.10
2023-02-06T13:48:30.841Z,2.10
2023-02-06T13:51:12.110Z,2.10
2023-02-06T13:54:06.990Z,2.00
2023-02-06T13:57:16.047Z,1.96
2023-02-06T13:59:57.914Z,2.02
2023-02-06T14:02:47.969Z,2.10
2023-02-06T14:05:25.818Z,2.00
2023-02-06T14:08:21.620Z,1.90
2023-02-06T14:10:55.133Z,1.80
2023-02-06T14:13:34.516Z,1.80
2023-02-06T14:16:10.340Z,1.78
2023-02-06T14:18:52.646Z,1.70
2023-02-06T14:21:22.537Z,1.70
2023-02-06T14:24:13.802Z,1.70
2023-02-06T14:27:00.891Z,1.70
2023-02-06T14:30:00.854Z,1.70
2023-02-06T14:33:06.113Z,1.70
2023-02-06T14:35:57.507Z,1.70
2023-02-06T14:38:41.864Z,1.74
2023-02-06T14:41:09.392Z,1.80
2023-02-06T14:43:39.799Z,1.80
2023-02-06T14:46:13.221Z,1.80
2023-02-06T14:48:52.100Z,1.80
2023-02-06T14:51:35.629Z,1.90
2023-02-06T14:54:33.837Z,2.00
2023-02-06T14:57:13.666Z,1.90
2023-02-06T14:59:59.235Z,1.82
2023-02-06T15:02:37.077Z,1.80
2023-02-06T15:05:06.522Z,1.80
2023-02-06T15:07:37.529Z,1.80
2023-02-06T15:10:15.023Z,1.80
2023-02-06T15:12:42.242Z,1.80
2023-02-06T15:15:20.265Z,1.80
2023-02-06T15:18:00.468Z,1.70
2023-02-06T15:20:31.760Z,1.70
2023-02-06T15:23:17.682Z,1.70
2023-02-06T15:26:17.986Z,1.70
2023-02-06T15:28:45.348Z,1.70
2023-02-06T15:31:19.198Z,1.70
2023-02-06T15:33:51.220Z,1.70
2023-02-06T15:36:33.232Z,1.72
2023-02-06T15:39:01.191Z,1.78
2023-02-06T15:41:30.968Z,1.70
2023-02-06T15:44:10.218Z,1.70
2023-02-06T15:46:38.410Z,1.72
2023-02-06T15:49:06.962Z,1.80
2023-02-06T15:51:51.953Z,1.80
2023-02-06T15:54:24.687Z,1.80
2023-02-06T15:57:04.692Z,1.70
2023-02-06T15:59:36.569Z,1.66
2023-02-06T16:02:04.486Z,1.60
2023-02-06T16:04:41.794Z,1.60
2023-02-06T16:07:32.332Z,1.60
2023-02-06T16:10:25.189Z,1.50
2023-02-06T16:12:53.148Z,1.60
2023-02-06T16:15:29.686Z,1.60
2023-02-06T16:17:58.437Z,1.60
2023-02-06T16:20:34.253Z,1.50
2023-02-06T16:23:43.129Z,1.60
2023-02-06T16:26:24.365Z,1.50
2023-02-06T16:29:25.042Z,1.48
2023-02-06T16:32:02.302Z,1.40
2023-02-06T16:34:54.871Z,1.40
2023-02-06T16:37:29.120Z,1.40
2023-02-06T16:39:56.058Z,1.40
2023-02-06T16:42:33.786Z,1.30
2023-02-06T16:45:07.411Z,1.30
2023-02-06T16:47:34.262Z,1.30
2023-02-06T16:50:01.002Z,1.30
2023-02-06T16:52:32.054Z,1.30
2023-02-06T16:54:59.817Z,1.30
2023-02-06T16:57:41.413Z,1.30
2023-02-06T17:00:17.815Z,1.32
2023-02-06T17:02:46.605Z,1.38
2023-02-06T17:05:14.543Z,1.40
2023-02-06T17:07:42.791Z,1.40
2023-02-06T17:10:14.259Z,1.30
2023-02-06T17:12:42.182Z,1.30
2023-02-06T17:15:13.781Z,1.30
2023-02-06T17:17:41.134Z,1.32
2023-02-06T17:20:31.020Z,1.30
2023-02-06T17:22:57.699Z,1.30
2023-02-06T17:25:24.856Z,1.30
2023-02-06T17:27:52.083Z,1.40
2023-02-06T17:30:23.213Z,1.40
2023-02-06T17:32:50.069Z,1.40
2023-02-06T17:35:17.149Z,1.48
2023-02-06T17:37:43.937Z,1.40
2023-02-06T17:40:22.401Z,1.40
2023-02-06T17:42:49.634Z,1.40
2023-02-06T17:45:16.586Z,1.40
2023-02-06T17:47:43.366Z,1.40
2023-02-06T17:50:15.896Z,1.46
2023-02-06T17:52:42.890Z,1.50
2023-02-06T17:55:14.928Z,1.54
2023-02-06T17:57:41.648Z,1.64
2023-02-06T18:00:14.156Z,1.70
2023-02-06T18:02:41.117Z,1.70
2023-02-06T18:05:08.647Z,1.62
2023-02-06T18:07:35.386Z,1.70
2023-02-06T18:10:02.036Z,1.70
2023-02-06T18:12:28.648Z,1.60
2023-02-06T18:14:55.310Z,1.60
2023-02-06T18:17:22.291Z,1.60
2023-02-06T18:19:50.810Z,1.54
2023-02-06T18:22:21.895Z,1.60
2023-02-06T18:24:51.169Z,1.60
2023-02-06T18:27:20.402Z,1.50
2023-02-06T18:29:52.600Z,1.60
2023-02-06T18:32:19.573Z,1.60
2023-02-06T18:34:47.310Z,1.60
2023-02-06T18:37:14.976Z,1.48
2023-02-06T18:39:41.745Z,1.40
2023-02-06T18:42:27.711Z,1.40
2023-02-06T18:44:54.406Z,1.34
2023-02-06T18:47:21.027Z,1.30
2023-02-06T18:49:48.445Z,1.30
2023-02-06T18:52:15.177Z,1.30
2023-02-06T18:54:42.528Z,1.30
2023-02-06T18:57:09.204Z,1.30
2023-02-06T18:59:36.782Z,1.30
2023-02-06T19:02:03.811Z,1.30
2023-02-06T19:04:30.481Z,1.30
2023-02-06T19:06:57.134Z,1.20
2023-02-06T19:09:23.998Z,1.20
2023-02-06T19:11:50.880Z,1.20
2023-02-06T19:14:22.496Z,1.10
2023-02-06T19:16:52.468Z,1.10
2023-02-06T19:19:19.452Z,1.10
2023-02-06T19:21:46.154Z,1.08
2023-02-06T19:24:15.990Z,1.00
2023-02-06T19:26:42.708Z,0.96
2023-02-06T19:29:09.627Z,0.88
2023-02-06T19:31:40.605Z,0.80
2023-02-06T19:34:07.707Z,0.70
2023-02-06T19:36:36.147Z,0.70
2023-02-06T19:39:09.653Z,0.60
2023-02-06T19:41:36.827Z,0.60
2023-02-06T19:44:08.874Z,0.64
2023-02-06T19:46:37.018Z,0.60
2023-02-06T19:49:06.239Z,0.60
2023-02-06T19:51:39.446Z,0.50
2023-02-06T19:54:06.375Z,0.46
2023-02-06T19:56:39.328Z,0.40
2023-02-06T19:59:18.951Z,0.40
2023-02-06T20:01:50.580Z,0.36
2023-02-06T20:04:18.994Z,0.30
2023-02-06T20:06:46.188Z,0.30
2023-02-06T20:09:15.157Z,0.30
2023-02-06T20:11:43.021Z,0.22
2023-02-06T20:14:12.412Z,0.20
2023-02-06T20:16:41.472Z,0.20
2023-02-06T20:19:16.230Z,0.20
2023-02-06T20:21:49.956Z,0.20
2023-02-06T20:24:24.397Z,0.20
2023-02-06T20:26:56.225Z,0.20
2023-02-06T20:29:31.350Z,0.14
2023-02-06T20:31:58.740Z,0.10
2023-02-06T20:34:26.906Z,0.00
2023-02-06T20:36:55.230Z,0.00
2023-02-06T20:39:22.273Z,0.00
2023-02-06T20:41:50.361Z,-0.02
2023-02-06T20:44:19.014Z,-0.10
2023-02-06T20:46:46.512Z,-0.10
2023-02-06T20:49:24.204Z,-0.10
2023-02-06T20:51:51.987Z,-0.10
2023-02-06T20:54:20.141Z,-0.14
2023-02-06T20:56:46.888Z,-0.20
2023-02-06T20:59:16.960Z,-0.20
2023-02-06T21:01:44.167Z,-0.24
2023-02-06T21:04:13.816Z,-0.30
2023-02-06T21:06:40.954Z,-0.30
2023-02-06T21:09:09.530Z,-0.30
2023-02-06T21:11:43.640Z,-0.30
2023-02-06T21:14:11.808Z,-0.36
2023-02-06T21:16:39.718Z,-0.40
2023-02-06T21:19:09.439Z,-0.40
2023-02-06T21:21:37.210Z,-0.40
2023-02-06T21:24:05.325Z,-0.40
2023-02-06T21:26:33.190Z,-0.40
2023-02-06T21:29:02.426Z,-0.38
2023-02-06T21:31:36.809Z,-0.38
2023-02-06T21:34:12.193Z,-0.40
2023-02-06T21:36:40.073Z,-0.40
2023-02-06T21:39:08.235Z,-0.42
2023-02-06T21:41:36.345Z,-0.50
2023-02-06T21:44:03.355Z,-0.60
2023-02-06T21:46:33.491Z,-0.60
2023-02-06T21:49:00.199Z,-0.60
2023-02-06T21:51:27.096Z,-0.62
2023-02-06T21:53:53.888Z,-0.70
2023-02-06T21:56:27.389Z,-0.70
2023-02-06T21:58:54.480Z,-0.80
2023-02-06T22:01:26.459Z,-0.80
2023-02-06T22:03:53.651Z,-0.80
2023-02-06T22:06:20.784Z,-0.80
2023-02-06T22:08:54.286Z,-0.80
2023-02-06T22:11:26.246Z,-0.88
2023-02-06T22:13:57.815Z,-0.90
2023-02-06T22:16:25.521Z,-0.90
2023-02-06T22:18:52.225Z,-0.90
2023-02-06T22:21:22.257Z,-0.90
2023-02-06T22:23:50.895Z,-0.90
2023-02-06T22:26:20.692Z,-0.90
2023-02-06T22:28:47.479Z,-0.92
2023-02-06T22:31:29.642Z,-0.94
2023-02-06T22:33:59.319Z,-1.00
2023-02-06T22:36:30.374Z,-1.00
2023-02-06T22:39:06.697Z,-1.00
2023-02-06T22:41:35.083Z,-1.04
2023-02-06T22:44:02.098Z,-1.10
2023-02-06T22:46:33.085Z,-1.10
2023-02-06T22:49:00.318Z,-1.10
2023-02-06T22:51:27.702Z,-1.10
2023-02-06T22:53:55.100Z,-1.10
2023-02-06T22:56:31.933Z,-1.10
2023-02-06T22:59:08.176Z,-1.10
2023-02-06T23:01:47.762Z,-1.20
2023-02-06T23:04:22.465Z,-1.20
2023-02-06T23:06:51.082Z,-1.20
2023-02-06T23:09:25.339Z,-1.20
2023-02-06T23:11:53.232Z,-1.20
2023-02-06T23:14:20.991Z,-1.20
2023-02-06T23:16:47.874Z,-1.20
2023-02-06T23:19:16.142Z,-1.20
2023-02-06T23:21:44.807Z,-1.20
2023-02-06T23:24:13.097Z,-1.30
2023-02-06T23:26:45.858Z,-1.30
2023-02-06T23:29:18.333Z,-1.34
2023-02-06T23:31:47.219Z,-1.40
2023-02-06T23:34:15.817Z,-1.40
2023-02-06T23:36:42.985Z,-1.50
2023-02-06T23:39:09.638Z,-1.50
2023-02-06T23:41:36.282Z,-1.46
2023-02-06T23:44:06.477Z,-1.50
2023-02-06T23:46:37.047Z,-1.50
2023-02-06T23:49:04.995Z,-1.50
2023-02-06T23:51:32.952Z,-1.58
2023-02-06T23:53:59.773Z,-1.60
2023-02-06T23:56:29.183Z,-1.60
2023-02-06T23:58:58.222Z,-1.70
